sensor_id;sensor_type;location;lat;lon;timestamp;P1;durP1;ratioP1;P2;durP2;ratioP2
69779;SDS011;57052;55.602;38.096;2022-08-07T00:01:13;15.10;;;10.30;;
69779;SDS011;57052;55.602;38.096;2022-08-07T00:03:38;14.18;;;10.23;;
69779;SDS011;57052;55.602;38.096;2022-08-07T00:06:04;13.50;;;10.00;;
69779;SDS011;57052;55.602;38.096;2022-08-07T00:08:30;15.98;;;10.35;;
69779;SDS011;57052;55.602;38.096;2022-08-07T00:10:55;16.55;;;12.35;;
69779;SDS011;57052;55.602;38.096;2022-08-07T00:13:21;15.80;;;10.55;;
69779;SDS011;57052;55.602;38.096;2022-08-07T00:15:48;14.75;;;9.93;;
69779;SDS011;57052;55.602;38.096;2022-08-07T00:18:15;15.48;;;10.38;;
69779;SDS011;57052;55.602;38.096;2022-08-07T00:20:43;19.70;;;10.48;;
69779;SDS011;57052;55.602;38.096;2022-08-07T00:23:09;18.17;;;10.77;;
69779;SDS011;57052;55.602;38.096;2022-08-07T00:25:34;20.17;;;11.05;;
69779;SDS011;57052;55.602;38.096;2022-08-07T00:28:01;16.52;;;10.85;;
69779;SDS011;57052;55.602;38.096;2022-08-07T00:30:27;15.02;;;10.38;;
69779;SDS011;57052;55.602;38.096;2022-08-07T00:32:53;16.17;;;10.18;;
69779;SDS011;57052;55.602;38.096;2022-08-07T00:35:20;13.57;;;10.13;;
69779;SDS011;57052;55.602;38.096;2022-08-07T00:37:46;13.23;;;9.75;;
69779;SDS011;57052;55.602;38.096;2022-08-07T00:40:12;15.98;;;10.57;;
69779;SDS011;57052;55.602;38.096;2022-08-07T00:42:38;14.55;;;10.48;;
69779;SDS011;57052;55.602;38.096;2022-08-07T00:45:05;15.45;;;10.52;;
69779;SDS011;57052;55.602;38.096;2022-08-07T00:47:32;17.48;;;10.98;;
69779;SDS011;57052;55.602;38.096;2022-08-07T00:49:58;16.15;;;10.68;;
69779;SDS011;57052;55.602;38.096;2022-08-07T00:52:24;15.07;;;10.57;;
69779;SDS011;57052;55.602;38.096;2022-08-07T00:54:50;13.60;;;9.77;;
69779;SDS011;57052;55.602;38.096;2022-08-07T00:57:16;15.40;;;10.52;;
69779;SDS011;57052;55.602;38.096;2022-08-07T00:59:42;14.60;;;10.68;;
69779;SDS011;57052;55.602;38.096;2022-08-07T01:02:08;15.60;;;10.25;;
69779;SDS011;57052;55.602;38.096;2022-08-07T01:04:36;15.98;;;9.73;;
69779;SDS011;57052;55.602;38.096;2022-08-07T01:07:02;15.95;;;10.07;;
69779;SDS011;57052;55.602;38.096;2022-08-07T01:09:29;14.63;;;9.48;;
69779;SDS011;57052;55.602;38.096;2022-08-07T01:11:56;16.05;;;10.98;;
69779;SDS011;57052;55.602;38.096;2022-08-07T01:14:22;15.88;;;10.38;;
69779;SDS011;57052;55.602;38.096;2022-08-07T01:16:49;15.40;;;10.80;;
69779;SDS011;57052;55.602;38.096;2022-08-07T01:19:16;17.23;;;10.55;;
69779;SDS011;57052;55.602;38.096;2022-08-07T01:21:43;15.02;;;10.45;;
69779;SDS011;57052;55.602;38.096;2022-08-07T01:24:10;14.05;;;10.10;;
69779;SDS011;57052;55.602;38.096;2022-08-07T01:26:36;15.52;;;10.77;;
69779;SDS011;57052;55.602;38.096;2022-08-07T01:29:02;14.35;;;10.23;;
69779;SDS011;57052;55.602;38.096;2022-08-07T01:31:28;18.58;;;10.95;;
69779;SDS011;57052;55.602;38.096;2022-08-07T01:33:58;15.05;;;9.98;;
69779;SDS011;57052;55.602;38.096;2022-08-07T01:36:25;14.77;;;9.52;;
69779;SDS011;57052;55.602;38.096;2022-08-07T01:38:52;17.27;;;10.68;;
69779;SDS011;57052;55.602;38.096;2022-08-07T01:41:19;18.98;;;10.40;;
69779;SDS011;57052;55.602;38.096;2022-08-07T01:43:46;17.73;;;10.10;;
69779;SDS011;57052;55.602;38.096;2022-08-07T01:46:13;15.20;;;9.55;;
69779;SDS011;57052;55.602;38.096;2022-08-07T01:48:43;16.70;;;10.38;;
69779;SDS011;57052;55.602;38.096;2022-08-07T01:51:11;14.98;;;9.77;;
69779;SDS011;57052;55.602;38.096;2022-08-07T01:53:43;13.52;;;9.40;;
69779;SDS011;57052;55.602;38.096;2022-08-07T01:56:45;13.70;;;9.68;;
69779;SDS011;57052;55.602;38.096;2022-08-07T01:59:11;14.52;;;10.10;;
69779;SDS011;57052;55.602;38.096;2022-08-07T02:01:44;15.10;;;9.73;;
69779;SDS011;57052;55.602;38.096;2022-08-07T02:04:24;14.73;;;9.65;;
69779;SDS011;57052;55.602;38.096;2022-08-07T02:06:55;14.80;;;9.45;;
69779;SDS011;57052;55.602;38.096;2022-08-07T02:09:23;16.52;;;9.98;;
69779;SDS011;57052;55.602;38.096;2022-08-07T02:11:52;12.35;;;9.98;;
69779;SDS011;57052;55.602;38.096;2022-08-07T02:14:20;14.30;;;9.55;;
69779;SDS011;57052;55.602;38.096;2022-08-07T02:16:49;13.70;;;9.65;;
69779;SDS011;57052;55.602;38.096;2022-08-07T02:19:16;18.45;;;10.02;;
69779;SDS011;57052;55.602;38.096;2022-08-07T02:21:43;14.63;;;9.70;;
69779;SDS011;57052;55.602;38.096;2022-08-07T02:24:10;17.92;;;10.80;;
69779;SDS011;57052;55.602;38.096;2022-08-07T02:26:37;12.98;;;9.07;;
69779;SDS011;57052;55.602;38.096;2022-08-07T02:29:05;13.63;;;9.90;;
69779;SDS011;57052;55.602;38.096;2022-08-07T02:31:32;15.23;;;9.55;;
69779;SDS011;57052;55.602;38.096;2022-08-07T02:34:00;12.82;;;9.52;;
69779;SDS011;57052;55.602;38.096;2022-08-07T02:36:28;13.27;;;9.35;;
69779;SDS011;57052;55.602;38.096;2022-08-07T02:38:58;15.82;;;8.93;;
69779;SDS011;57052;55.602;38.096;2022-08-07T02:43:53;12.68;;;8.75;;
69779;SDS011;57052;55.602;38.096;2022-08-07T02:46:22;10.85;;;8.27;;
69779;SDS011;57052;55.602;38.096;2022-08-07T02:48:50;12.15;;;9.02;;
69779;SDS011;57052;55.602;38.096;2022-08-07T02:51:17;12.27;;;8.82;;
69779;SDS011;57052;55.602;38.096;2022-08-07T02:53:45;12.50;;;8.85;;
69779;SDS011;57052;55.602;38.096;2022-08-07T02:56:18;14.57;;;8.70;;
69779;SDS011;57052;55.602;38.096;2022-08-07T02:58:46;13.15;;;8.77;;
69779;SDS011;57052;55.602;38.096;2022-08-07T03:01:13;13.90;;;8.30;;
69779;SDS011;57052;55.602;38.096;2022-08-07T03:03:41;11.52;;;8.80;;
69779;SDS011;57052;55.602;38.096;2022-08-07T03:06:08;13.90;;;8.80;;
69779;SDS011;57052;55.602;38.096;2022-08-07T03:08:35;14.13;;;8.35;;
69779;SDS011;57052;55.602;38.096;2022-08-07T03:11:01;16.55;;;8.68;;
69779;SDS011;57052;55.602;38.096;2022-08-07T03:13:27;12.02;;;8.23;;
69779;SDS011;57052;55.602;38.096;2022-08-07T03:15:53;12.15;;;8.30;;
69779;SDS011;57052;55.602;38.096;2022-08-07T03:18:20;13.80;;;7.30;;
69779;SDS011;57052;55.602;38.096;2022-08-07T03:20:46;13.25;;;8.77;;
69779;SDS011;57052;55.602;38.096;2022-08-07T03:23:12;11.00;;;8.50;;
69779;SDS011;57052;55.602;38.096;2022-08-07T03:25:39;11.82;;;7.93;;
69779;SDS011;57052;55.602;38.096;2022-08-07T03:28:26;12.65;;;8.18;;
69779;SDS011;57052;55.602;38.096;2022-08-07T03:30:53;13.70;;;8.88;;
69779;SDS011;57052;55.602;38.096;2022-08-07T03:33:40;12.45;;;8.65;;
69779;SDS011;57052;55.602;38.096;2022-08-07T03:36:08;12.10;;;8.40;;
69779;SDS011;57052;55.602;38.096;2022-08-07T03:38:36;13.25;;;8.02;;
69779;SDS011;57052;55.602;38.096;2022-08-07T03:41:04;13.70;;;7.47;;
69779;SDS011;57052;55.602;38.096;2022-08-07T03:43:30;12.30;;;7.88;;
69779;SDS011;57052;55.602;38.096;2022-08-07T03:45:57;10.82;;;7.82;;
69779;SDS011;57052;55.602;38.096;2022-08-07T03:48:24;11.57;;;7.97;;
69779;SDS011;57052;55.602;38.096;2022-08-07T03:50:51;12.77;;;7.82;;
69779;SDS011;57052;55.602;38.096;2022-08-07T03:53:17;11.68;;;7.47;;
69779;SDS011;57052;55.602;38.096;2022-08-07T03:55:43;13.38;;;7.80;;
69779;SDS011;57052;55.602;38.096;2022-08-07T03:58:09;11.07;;;7.70;;
69779;SDS011;57052;55.602;38.096;2022-08-07T04:00:36;12.82;;;8.00;;
69779;SDS011;57052;55.602;38.096;2022-08-07T04:03:03;14.38;;;7.97;;
69779;SDS011;57052;55.602;38.096;2022-08-07T04:05:29;11.48;;;8.15;;
69779;SDS011;57052;55.602;38.096;2022-08-07T04:07:54;12.55;;;7.88;;
69779;SDS011;57052;55.602;38.096;2022-08-07T04:10:21;14.63;;;8.35;;
69779;SDS011;57052;55.602;38.096;2022-08-07T04:12:47;15.70;;;7.78;;
69779;SDS011;57052;55.602;38.096;2022-08-07T04:15:14;11.43;;;8.02;;
69779;SDS011;57052;55.602;38.096;2022-08-07T04:17:41;13.25;;;7.38;;
69779;SDS011;57052;55.602;38.096;2022-08-07T04:20:09;10.57;;;7.95;;
69779;SDS011;57052;55.602;38.096;2022-08-07T04:22:35;11.18;;;7.22;;
69779;SDS011;57052;55.602;38.096;2022-08-07T04:25:02;13.07;;;7.55;;
69779;SDS011;57052;55.602;38.096;2022-08-07T04:27:29;12.52;;;7.50;;
69779;SDS011;57052;55.602;38.096;2022-08-07T04:29:55;11.40;;;7.13;;
69779;SDS011;57052;55.602;38.096;2022-08-07T04:32:21;11.75;;;7.57;;
69779;SDS011;57052;55.602;38.096;2022-08-07T04:34:47;12.18;;;7.05;;
69779;SDS011;57052;55.602;38.096;2022-08-07T04:37:14;11.25;;;7.88;;
69779;SDS011;57052;55.602;38.096;2022-08-07T04:39:41;12.18;;;7.57;;
69779;SDS011;57052;55.602;38.096;2022-08-07T04:42:06;13.15;;;7.47;;
69779;SDS011;57052;55.602;38.096;2022-08-07T04:44:32;10.50;;;7.28;;
69779;SDS011;57052;55.602;38.096;2022-08-07T04:47:02;14.05;;;7.50;;
69779;SDS011;57052;55.602;38.096;2022-08-07T04:50:07;11.02;;;8.10;;
69779;SDS011;57052;55.602;38.096;2022-08-07T04:52:54;10.77;;;7.22;;
69779;SDS011;57052;55.602;38.096;2022-08-07T04:55:50;14.75;;;7.55;;
69779;SDS011;57052;55.602;38.096;2022-08-07T04:58:30;16.10;;;7.22;;
69779;SDS011;57052;55.602;38.096;2022-08-07T05:03:49;11.82;;;6.70;;
69779;SDS011;57052;55.602;38.096;2022-08-07T05:06:35;10.18;;;6.57;;
69779;SDS011;57052;55.602;38.096;2022-08-07T05:09:08;9.90;;;6.95;;
69779;SDS011;57052;55.602;38.096;2022-08-07T05:11:43;9.88;;;6.43;;
69779;SDS011;57052;55.602;38.096;2022-08-07T05:14:35;14.57;;;7.60;;
69779;SDS011;57052;55.602;38.096;2022-08-07T05:17:01;12.88;;;7.40;;
69779;SDS011;57052;55.602;38.096;2022-08-07T05:19:34;10.55;;;6.93;;
69779;SDS011;57052;55.602;38.096;2022-08-07T05:22:02;13.32;;;8.05;;
69779;SDS011;57052;55.602;38.096;2022-08-07T05:24:31;12.30;;;7.68;;
69779;SDS011;57052;55.602;38.096;2022-08-07T05:27:00;11.15;;;7.43;;
69779;SDS011;57052;55.602;38.096;2022-08-07T05:29:27;13.10;;;6.88;;
69779;SDS011;57052;55.602;38.096;2022-08-07T05:31:55;8.82;;;6.60;;
69779;SDS011;57052;55.602;38.096;2022-08-07T05:34:24;10.32;;;6.28;;
69779;SDS011;57052;55.602;38.096;2022-08-07T05:36:51;8.93;;;6.00;;
69779;SDS011;57052;55.602;38.096;2022-08-07T05:39:18;10.63;;;5.60;;
69779;SDS011;57052;55.602;38.096;2022-08-07T05:41:46;13.35;;;6.10;;
69779;SDS011;57052;55.602;38.096;2022-08-07T05:44:14;7.50;;;5.85;;
69779;SDS011;57052;55.602;38.096;2022-08-07T05:46:41;8.13;;;6.20;;
69779;SDS011;57052;55.602;38.096;2022-08-07T05:49:08;9.10;;;5.38;;
69779;SDS011;57052;55.602;38.096;2022-08-07T05:51:35;10.57;;;5.85;;
69779;SDS011;57052;55.602;38.096;2022-08-07T05:54:02;9.35;;;5.32;;
69779;SDS011;57052;55.602;38.096;2022-08-07T05:56:28;8.82;;;5.28;;
69779;SDS011;57052;55.602;38.096;2022-08-07T05:58:57;10.63;;;5.63;;
69779;SDS011;57052;55.602;38.096;2022-08-07T06:01:26;10.98;;;5.63;;
69779;SDS011;57052;55.602;38.096;2022-08-07T06:03:54;8.95;;;5.43;;
69779;SDS011;57052;55.602;38.096;2022-08-07T06:06:21;10.18;;;5.25;;
69779;SDS011;57052;55.602;38.096;2022-08-07T06:08:48;11.23;;;5.22;;
69779;SDS011;57052;55.602;38.096;2022-08-07T06:11:14;11.23;;;5.93;;
69779;SDS011;57052;55.602;38.096;2022-08-07T06:13:41;10.13;;;5.63;;
69779;SDS011;57052;55.602;38.096;2022-08-07T06:16:07;11.40;;;5.32;;
69779;SDS011;57052;55.602;38.096;2022-08-07T06:18:33;7.63;;;4.85;;
69779;SDS011;57052;55.602;38.096;2022-08-07T06:21:00;8.38;;;5.28;;
69779;SDS011;57052;55.602;38.096;2022-08-07T06:23:27;7.65;;;5.63;;
69779;SDS011;57052;55.602;38.096;2022-08-07T06:25:54;11.65;;;5.25;;
69779;SDS011;57052;55.602;38.096;2022-08-07T06:28:21;12.60;;;5.22;;
69779;SDS011;57052;55.602;38.096;2022-08-07T06:30:47;10.90;;;5.22;;
69779;SDS011;57052;55.602;38.096;2022-08-07T06:33:12;12.43;;;5.72;;
69779;SDS011;57052;55.602;38.096;2022-08-07T06:35:38;12.88;;;7.38;;
69779;SDS011;57052;55.602;38.096;2022-08-07T06:38:04;8.48;;;4.55;;
69779;SDS011;57052;55.602;38.096;2022-08-07T06:40:34;11.65;;;5.22;;
69779;SDS011;57052;55.602;38.096;2022-08-07T06:43:04;9.35;;;5.20;;
69779;SDS011;57052;55.602;38.096;2022-08-07T06:45:33;9.77;;;5.10;;
69779;SDS011;57052;55.602;38.096;2022-08-07T06:47:59;15.48;;;5.38;;
69779;SDS011;57052;55.602;38.096;2022-08-07T06:50:25;10.15;;;4.93;;
69779;SDS011;57052;55.602;38.096;2022-08-07T06:52:52;12.63;;;5.53;;
69779;SDS011;57052;55.602;38.096;2022-08-07T06:55:23;9.20;;;4.82;;
69779;SDS011;57052;55.602;38.096;2022-08-07T06:57:51;9.38;;;4.50;;
69779;SDS011;57052;55.602;38.096;2022-08-07T07:00:19;8.32;;;4.45;;
69779;SDS011;57052;55.602;38.096;2022-08-07T07:02:45;11.52;;;4.70;;
69779;SDS011;57052;55.602;38.096;2022-08-07T07:05:12;8.18;;;4.40;;
69779;SDS011;57052;55.602;38.096;2022-08-07T07:07:38;7.68;;;4.20;;
69779;SDS011;57052;55.602;38.096;2022-08-07T07:10:04;6.28;;;4.57;;
69779;SDS011;57052;55.602;38.096;2022-08-07T07:12:34;6.22;;;4.40;;
69779;SDS011;57052;55.602;38.096;2022-08-07T07:15:14;7.80;;;4.40;;
69779;SDS011;57052;55.602;38.096;2022-08-07T07:17:47;7.50;;;4.50;;
69779;SDS011;57052;55.602;38.096;2022-08-07T07:20:19;8.32;;;5.13;;
69779;SDS011;57052;55.602;38.096;2022-08-07T07:22:49;7.70;;;4.47;;
69779;SDS011;57052;55.602;38.096;2022-08-07T07:25:17;13.95;;;4.85;;
69779;SDS011;57052;55.602;38.096;2022-08-07T07:27:49;10.48;;;4.40;;
69779;SDS011;57052;55.602;38.096;2022-08-07T07:30:23;5.82;;;4.25;;
69779;SDS011;57052;55.602;38.096;2022-08-07T07:32:53;6.35;;;3.92;;
69779;SDS011;57052;55.602;38.096;2022-08-07T07:35:23;8.18;;;4.53;;
69779;SDS011;57052;55.602;38.096;2022-08-07T07:37:50;5.75;;;4.13;;
69779;SDS011;57052;55.602;38.096;2022-08-07T07:40:19;12.05;;;5.40;;
69779;SDS011;57052;55.602;38.096;2022-08-07T07:42:47;7.95;;;4.43;;
69779;SDS011;57052;55.602;38.096;2022-08-07T07:45:18;6.88;;;4.63;;
69779;SDS011;57052;55.602;38.096;2022-08-07T07:47:47;9.98;;;4.40;;
69779;SDS011;57052;55.602;38.096;2022-08-07T07:50:16;8.75;;;4.40;;
69779;SDS011;57052;55.602;38.096;2022-08-07T07:52:46;7.82;;;5.43;;
69779;SDS011;57052;55.602;38.096;2022-08-07T07:55:12;6.32;;;4.50;;
69779;SDS011;57052;55.602;38.096;2022-08-07T07:57:41;9.43;;;4.85;;
69779;SDS011;57052;55.602;38.096;2022-08-07T08:00:08;6.43;;;3.67;;
69779;SDS011;57052;55.602;38.096;2022-08-07T08:02:36;8.80;;;4.35;;
69779;SDS011;57052;55.602;38.096;2022-08-07T08:05:06;10.68;;;4.03;;
69779;SDS011;57052;55.602;38.096;2022-08-07T08:07:33;7.20;;;4.68;;
69779;SDS011;57052;55.602;38.096;2022-08-07T08:10:02;8.23;;;4.60;;
69779;SDS011;57052;55.602;38.096;2022-08-07T08:12:30;5.93;;;4.25;;
69779;SDS011;57052;55.602;38.096;2022-08-07T08:14:57;6.63;;;4.40;;
69779;SDS011;57052;55.602;38.096;2022-08-07T08:17:23;8.10;;;4.43;;
69779;SDS011;57052;55.602;38.096;2022-08-07T08:19:51;7.50;;;4.80;;
69779;SDS011;57052;55.602;38.096;2022-08-07T08:22:21;7.75;;;4.03;;
69779;SDS011;57052;55.602;38.096;2022-08-07T08:25:06;8.77;;;4.13;;
69779;SDS011;57052;55.602;38.096;2022-08-07T08:27:53;8.38;;;5.20;;
69779;SDS011;57052;55.602;38.096;2022-08-07T08:30:20;11.30;;;4.38;;
69779;SDS011;57052;55.602;38.096;2022-08-07T08:32:48;5.63;;;4.05;;
69779;SDS011;57052;55.602;38.096;2022-08-07T08:35:19;5.33;;;3.57;;
69779;SDS011;57052;55.602;38.096;2022-08-07T08:37:48;5.60;;;3.97;;
69779;SDS011;57052;55.602;38.096;2022-08-07T08:40:20;5.22;;;3.80;;
69779;SDS011;57052;55.602;38.096;2022-08-07T08:45:43;8.40;;;4.25;;
69779;SDS011;57052;55.602;38.096;2022-08-07T08:50:47;8.18;;;4.30;;
69779;SDS011;57052;55.602;38.096;2022-08-07T08:56:23;5.85;;;4.40;;
69779;SDS011;57052;55.602;38.096;2022-08-07T08:58:53;8.38;;;4.25;;
69779;SDS011;57052;55.602;38.096;2022-08-07T09:07:17;5.88;;;4.40;;
69779;SDS011;57052;55.602;38.096;2022-08-07T09:09:57;11.50;;;4.20;;
69779;SDS011;57052;55.602;38.096;2022-08-07T09:20:36;5.70;;;3.92;;
69779;SDS011;57052;55.602;38.096;2022-08-07T09:23:30;6.97;;;3.80;;
69779;SDS011;57052;55.602;38.096;2022-08-07T09:29:02;6.70;;;3.70;;
69779;SDS011;57052;55.602;38.096;2022-08-07T09:34:44;5.97;;;3.60;;
69779;SDS011;57052;55.602;38.096;2022-08-07T09:42:39;7.00;;;3.92;;
69779;SDS011;57052;55.602;38.096;2022-08-07T09:45:30;8.20;;;4.05;;
69779;SDS011;57052;55.602;38.096;2022-08-07T09:53:36;5.70;;;4.35;;
69779;SDS011;57052;55.602;38.096;2022-08-07T10:16:20;5.43;;;3.30;;
69779;SDS011;57052;55.602;38.096;2022-08-07T10:27:40;6.68;;;3.50;;
69779;SDS011;57052;55.602;38.096;2022-08-07T10:30:31;5.38;;;3.45;;
69779;SDS011;57052;55.602;38.096;2022-08-07T10:38:43;7.72;;;3.90;;
69779;SDS011;57052;55.602;38.096;2022-08-07T10:41:17;6.47;;;4.00;;
69779;SDS011;57052;55.602;38.096;2022-08-07T10:44:06;9.38;;;4.10;;
69779;SDS011;57052;55.602;38.096;2022-08-07T10:46:39;4.60;;;3.65;;
69779;SDS011;57052;55.602;38.096;2022-08-07T10:49:14;6.70;;;3.95;;
69779;SDS011;57052;55.602;38.096;2022-08-07T10:54:36;6.60;;;4.32;;
69779;SDS011;57052;55.602;38.096;2022-08-07T10:57:10;7.85;;;4.32;;
69779;SDS011;57052;55.602;38.096;2022-08-07T11:02:38;11.20;;;4.70;;
69779;SDS011;57052;55.602;38.096;2022-08-07T11:11:06;8.50;;;4.38;;
69779;SDS011;57052;55.602;38.096;2022-08-07T11:16:26;7.60;;;3.90;;
69779;SDS011;57052;55.602;38.096;2022-08-07T11:19:06;8.82;;;4.10;;
69779;SDS011;57052;55.602;38.096;2022-08-07T11:27:18;5.20;;;3.63;;
69779;SDS011;57052;55.602;38.096;2022-08-07T11:30:04;6.57;;;4.38;;
69779;SDS011;57052;55.602;38.096;2022-08-07T11:32:39;11.48;;;4.90;;
69779;SDS011;57052;55.602;38.096;2022-08-07T11:35:16;8.52;;;4.05;;
69779;SDS011;57052;55.602;38.096;2022-08-07T11:43:29;6.18;;;3.40;;
69779;SDS011;57052;55.602;38.096;2022-08-07T12:08:08;4.63;;;3.22;;
69779;SDS011;57052;55.602;38.096;2022-08-07T12:10:39;4.70;;;3.60;;
69779;SDS011;57052;55.602;38.096;2022-08-07T12:13:21;6.97;;;3.30;;
69779;SDS011;57052;55.602;38.096;2022-08-07T12:16:06;5.72;;;3.30;;
69779;SDS011;57052;55.602;38.096;2022-08-07T12:18:40;5.57;;;3.00;;
69779;SDS011;57052;55.602;38.096;2022-08-07T12:21:19;11.18;;;3.80;;
69779;SDS011;57052;55.602;38.096;2022-08-07T12:23:53;4.32;;;3.20;;
69779;SDS011;57052;55.602;38.096;2022-08-07T12:26:44;6.93;;;3.70;;
69779;SDS011;57052;55.602;38.096;2022-08-07T12:29:18;4.72;;;2.88;;
69779;SDS011;57052;55.602;38.096;2022-08-07T12:32:08;6.53;;;3.30;;
69779;SDS011;57052;55.602;38.096;2022-08-07T12:34:39;7.30;;;2.88;;
69779;SDS011;57052;55.602;38.096;2022-08-07T12:37:07;6.40;;;2.97;;
69779;SDS011;57052;55.602;38.096;2022-08-07T12:39:35;7.20;;;3.35;;
69779;SDS011;57052;55.602;38.096;2022-08-07T12:42:05;5.47;;;3.10;;
69779;SDS011;57052;55.602;38.096;2022-08-07T12:44:33;6.47;;;3.20;;
69779;SDS011;57052;55.602;38.096;2022-08-07T12:47:17;10.20;;;3.17;;
69779;SDS011;57052;55.602;38.096;2022-08-07T12:50:21;7.40;;;3.00;;
69779;SDS011;57052;55.602;38.096;2022-08-07T12:52:59;7.75;;;3.15;;
69779;SDS011;57052;55.602;38.096;2022-08-07T12:55:41;5.00;;;2.75;;
69779;SDS011;57052;55.602;38.096;2022-08-07T12:58:11;4.97;;;2.70;;
69779;SDS011;57052;55.602;38.096;2022-08-07T13:01:06;7.00;;;4.28;;
69779;SDS011;57052;55.602;38.096;2022-08-07T13:03:54;10.90;;;4.35;;
69779;SDS011;57052;55.602;38.096;2022-08-07T13:09:16;7.95;;;5.03;;
69779;SDS011;57052;55.602;38.096;2022-08-07T13:14:42;16.10;;;5.30;;
69779;SDS011;57052;55.602;38.096;2022-08-07T13:17:26;7.07;;;4.47;;
69779;SDS011;57052;55.602;38.096;2022-08-07T13:20:02;7.53;;;4.60;;
69779;SDS011;57052;55.602;38.096;2022-08-07T13:22:54;10.15;;;4.22;;
69779;SDS011;57052;55.602;38.096;2022-08-07T13:28:03;10.82;;;4.57;;
69779;SDS011;57052;55.602;38.096;2022-08-07T13:30:34;7.93;;;4.25;;
69779;SDS011;57052;55.602;38.096;2022-08-07T13:35:55;7.07;;;4.32;;
69779;SDS011;57052;55.602;38.096;2022-08-07T13:38:46;5.75;;;3.85;;
69779;SDS011;57052;55.602;38.096;2022-08-07T13:43:52;7.55;;;3.70;;
69779;SDS011;57052;55.602;38.096;2022-08-07T13:46:20;5.63;;;3.85;;
69779;SDS011;57052;55.602;38.096;2022-08-07T13:48:52;6.35;;;3.90;;
69779;SDS011;57052;55.602;38.096;2022-08-07T13:51:23;7.32;;;4.30;;
69779;SDS011;57052;55.602;38.096;2022-08-07T13:53:58;6.47;;;3.97;;
69779;SDS011;57052;55.602;38.096;2022-08-07T13:56:28;7.80;;;3.78;;
69779;SDS011;57052;55.602;38.096;2022-08-07T13:58:56;7.18;;;4.30;;
69779;SDS011;57052;55.602;38.096;2022-08-07T14:01:31;7.00;;;4.50;;
69779;SDS011;57052;55.602;38.096;2022-08-07T14:04:00;8.25;;;4.38;;
69779;SDS011;57052;55.602;38.096;2022-08-07T14:06:33;7.85;;;4.80;;
69779;SDS011;57052;55.602;38.096;2022-08-07T14:09:02;8.93;;;5.47;;
69779;SDS011;57052;55.602;38.096;2022-08-07T14:11:29;8.63;;;5.03;;
69779;SDS011;57052;55.602;38.096;2022-08-07T14:14:02;7.05;;;4.82;;
69779;SDS011;57052;55.602;38.096;2022-08-07T14:16:35;6.35;;;4.30;;
69779;SDS011;57052;55.602;38.096;2022-08-07T14:19:09;5.55;;;4.07;;
69779;SDS011;57052;55.602;38.096;2022-08-07T14:21:41;6.90;;;3.95;;
69779;SDS011;57052;55.602;38.096;2022-08-07T14:24:12;4.68;;;3.22;;
69779;SDS011;57052;55.602;38.096;2022-08-07T14:26:59;6.35;;;4.45;;
69779;SDS011;57052;55.602;38.096;2022-08-07T14:29:32;6.88;;;4.45;;
69779;SDS011;57052;55.602;38.096;2022-08-07T14:32:02;7.97;;;4.32;;
69779;SDS011;57052;55.602;38.096;2022-08-07T14:34:32;6.45;;;4.30;;
69779;SDS011;57052;55.602;38.096;2022-08-07T14:37:00;10.63;;;4.45;;
69779;SDS011;57052;55.602;38.096;2022-08-07T14:39:28;9.55;;;5.20;;
69779;SDS011;57052;55.602;38.096;2022-08-07T14:41:57;7.30;;;4.30;;
69779;SDS011;57052;55.602;38.096;2022-08-07T14:44:26;7.28;;;4.25;;
69779;SDS011;57052;55.602;38.096;2022-08-07T14:46:54;6.57;;;4.13;;
69779;SDS011;57052;55.602;38.096;2022-08-07T14:49:23;8.00;;;4.60;;
69779;SDS011;57052;55.602;38.096;2022-08-07T14:51:55;4.82;;;3.72;;
69779;SDS011;57052;55.602;38.096;2022-08-07T14:54:22;13.00;;;5.50;;
69779;SDS011;57052;55.602;38.096;2022-08-07T14:56:53;6.85;;;3.90;;
69779;SDS011;57052;55.602;38.096;2022-08-07T14:59:21;5.80;;;3.83;;
69779;SDS011;57052;55.602;38.096;2022-08-07T15:01:51;5.78;;;4.18;;
69779;SDS011;57052;55.602;38.096;2022-08-07T15:04:18;6.07;;;4.05;;
69779;SDS011;57052;55.602;38.096;2022-08-07T15:06:46;8.05;;;5.07;;
69779;SDS011;57052;55.602;38.096;2022-08-07T15:09:15;8.18;;;4.90;;
69779;SDS011;57052;55.602;38.096;2022-08-07T15:11:52;6.43;;;4.30;;
69779;SDS011;57052;55.602;38.096;2022-08-07T15:14:22;8.18;;;4.45;;
69779;SDS011;57052;55.602;38.096;2022-08-07T15:16:58;7.63;;;4.22;;
69779;SDS011;57052;55.602;38.096;2022-08-07T15:19:32;6.78;;;4.00;;
69779;SDS011;57052;55.602;38.096;2022-08-07T15:22:01;7.57;;;4.10;;
69779;SDS011;57052;55.602;38.096;2022-08-07T15:24:33;9.77;;;4.80;;
69779;SDS011;57052;55.602;38.096;2022-08-07T15:27:13;9.10;;;5.25;;
69779;SDS011;57052;55.602;38.096;2022-08-07T15:29:44;7.40;;;4.40;;
69779;SDS011;57052;55.602;38.096;2022-08-07T15:32:14;8.05;;;4.32;;
69779;SDS011;57052;55.602;38.096;2022-08-07T15:34:54;8.02;;;4.38;;
69779;SDS011;57052;55.602;38.096;2022-08-07T15:37:26;6.80;;;4.82;;
69779;SDS011;57052;55.602;38.096;2022-08-07T15:39:56;7.38;;;4.50;;
69779;SDS011;57052;55.602;38.096;2022-08-07T15:47:51;8.13;;;4.53;;
69779;SDS011;57052;55.602;38.096;2022-08-07T15:50:20;7.50;;;4.10;;
69779;SDS011;57052;55.602;38.096;2022-08-07T15:52:51;7.40;;;4.63;;
69779;SDS011;57052;55.602;38.096;2022-08-07T15:55:22;12.60;;;7.15;;
69779;SDS011;57052;55.602;38.096;2022-08-07T15:57:50;9.40;;;5.40;;
69779;SDS011;57052;55.602;38.096;2022-08-07T16:00:18;9.77;;;5.38;;
69779;SDS011;57052;55.602;38.096;2022-08-07T16:02:45;6.47;;;4.68;;
69779;SDS011;57052;55.602;38.096;2022-08-07T16:05:16;10.90;;;5.18;;
69779;SDS011;57052;55.602;38.096;2022-08-07T16:07:55;9.95;;;5.25;;
69779;SDS011;57052;55.602;38.096;2022-08-07T16:10:27;8.38;;;5.53;;
69779;SDS011;57052;55.602;38.096;2022-08-07T16:15:49;8.32;;;4.80;;
69779;SDS011;57052;55.602;38.096;2022-08-07T16:26:55;6.90;;;4.75;;
69779;SDS011;57052;55.602;38.096;2022-08-07T16:32:06;7.10;;;4.65;;
69779;SDS011;57052;55.602;38.096;2022-08-07T16:34:41;6.25;;;4.15;;
69779;SDS011;57052;55.602;38.096;2022-08-07T16:51:07;8.88;;;6.18;;
69779;SDS011;57052;55.602;38.096;2022-08-07T16:56:49;11.07;;;6.75;;
69779;SDS011;57052;55.602;38.096;2022-08-07T17:07:50;11.93;;;7.43;;
69779;SDS011;57052;55.602;38.096;2022-08-07T17:10:21;9.27;;;6.00;;
69779;SDS011;57052;55.602;38.096;2022-08-07T17:12:58;10.50;;;5.35;;
69779;SDS011;57052;55.602;38.096;2022-08-07T17:20:40;9.60;;;5.55;;
69779;SDS011;57052;55.602;38.096;2022-08-07T17:28:16;9.55;;;5.75;;
69779;SDS011;57052;55.602;38.096;2022-08-07T17:30:51;10.48;;;5.05;;
69779;SDS011;57052;55.602;38.096;2022-08-07T17:33:25;10.02;;;5.60;;
69779;SDS011;57052;55.602;38.096;2022-08-07T17:38:35;7.85;;;5.60;;
69779;SDS011;57052;55.602;38.096;2022-08-07T17:41:20;6.90;;;5.10;;
69779;SDS011;57052;55.602;38.096;2022-08-07T17:43:58;7.00;;;4.63;;
69779;SDS011;57052;55.602;38.096;2022-08-07T17:46:32;8.70;;;5.35;;
69779;SDS011;57052;55.602;38.096;2022-08-07T17:49:13;8.88;;;5.68;;
69779;SDS011;57052;55.602;38.096;2022-08-07T17:51:55;7.45;;;5.20;;
69779;SDS011;57052;55.602;38.096;2022-08-07T17:54:44;9.10;;;5.57;;
69779;SDS011;57052;55.602;38.096;2022-08-07T17:58:15;8.82;;;5.75;;
69779;SDS011;57052;55.602;38.096;2022-08-07T18:00:07;11.27;;;5.70;;
69779;SDS011;57052;55.602;38.096;2022-08-07T18:02:41;8.98;;;5.15;;
69779;SDS011;57052;55.602;38.096;2022-08-07T18:08:09;8.90;;;5.50;;
69779;SDS011;57052;55.602;38.096;2022-08-07T18:10:44;9.77;;;5.53;;